Time;durP1;ratioP1;P1;durP2;ratioP2;P2;SDS_P1;SDS_P2;PMS_P1;PMS_P2;Temp;Humidity;BMP_temperature;BMP_pressure;BME280_temperature;BME280_humidity;BME280_pressure;Samples;Min_cycle;Max_cycle;Signal;HPM_P1;HPM_P2
2022/05/01 00:01:01;;;;;;;13.10;11.68;;;10.00;92.80;;;;;;4974891;28;92473;-72
2022/05/01 00:03:31;;;;;;;16.27;11.55;;;10.10;92.80;;;;;;4988890;28;95003;-72
2022/05/01 00:06:00;;;;;;;17.08;11.88;;;10.10;92.80;;;;;;5006520;28;93320;-72
2022/05/01 00:08:27;;;;;;;14.05;12.25;;;10.00;92.80;;;;;;4974950;28;93044;-72
2022/05/01 00:10:55;;;;;;;13.30;11.93;;;10.00;92.80;;;;;;4974831;28;92448;-72
2022/05/01 00:13:40;;;;;;;15.75;12.35;;;10.00;92.90;;;;;;4975210;28;92436;-71
2022/05/01 00:16:08;;;;;;;16.33;12.00;;;10.00;92.90;;;;;;4974259;28;93207;-72
2022/05/01 00:18:35;;;;;;;16.70;13.40;;;10.00;92.90;;;;;;4977757;28;92338;-72
2022/05/01 00:21:02;;;;;;;16.63;12.73;;;10.00;92.90;;;;;;4993086;28;91786;-72
2022/05/01 00:23:29;;;;;;;17.58;13.55;;;10.00;92.80;;;;;;4978257;28;92411;-72
2022/05/01 00:25:58;;;;;;;13.45;12.05;;;10.00;92.80;;;;;;4978096;28;93332;-72
2022/05/01 00:28:25;;;;;;;16.73;11.82;;;10.00;92.80;;;;;;5008577;28;94854;-72
2022/05/01 00:30:53;;;;;;;15.82;12.80;;;9.90;92.80;;;;;;4976521;28;92505;-72
2022/05/01 00:39:01;;;;;;;17.48;12.85;;;9.80;92.90;;;;;;4989164;28;95609;-72
2022/05/01 00:41:43;;;;;;;16.48;13.00;;;9.70;93.00;;;;;;4993244;28;92404;-72
2022/05/01 00:44:16;;;;;;;17.67;12.30;;;9.80;93.10;;;;;;4976359;28;92431;-72
2022/05/01 00:46:51;;;;;;;16.38;13.18;;;9.70;93.20;;;;;;4993228;28;93517;-72
2022/05/01 00:49:21;;;;;;;16.88;13.38;;;9.70;93.20;;;;;;4977846;28;95809;-72
2022/05/01 00:51:54;;;;;;;16.15;13.38;;;9.70;93.30;;;;;;4977575;28;92393;-72
2022/05/01 00:54:23;;;;;;;15.47;13.47;;;9.70;93.30;;;;;;4976877;28;94794;-72
2022/05/01 00:56:52;;;;;;;20.77;13.95;;;9.70;93.30;;;;;;5009363;28;93359;-72
2022/05/01 00:59:21;;;;;;;14.05;12.55;;;9.70;93.30;;;;;;4977749;28;93097;-72
2022/05/01 01:01:50;;;;;;;15.52;12.80;;;9.70;93.30;;;;;;4992759;28;92395;-72
2022/05/01 01:04:17;;;;;;;14.75;12.88;;;9.70;93.30;;;;;;4992654;28;92426;-72
2022/05/01 01:06:45;;;;;;;15.43;13.52;;;9.70;93.30;;;;;;5009491;28;93320;-72
2022/05/01 01:09:12;;;;;;;18.60;14.18;;;9.70;93.20;;;;;;4992339;28;95491;-72
2022/05/01 01:11:42;;;;;;;15.90;12.80;;;9.70;93.20;;;;;;4977729;28;91623;-72
2022/05/01 01:14:10;;;;;;;16.35;13.68;;;9.70;93.30;;;;;;4976895;28;92451;-72
2022/05/01 01:16:38;;;;;;;18.45;14.35;;;9.80;93.30;;;;;;4977037;28;94502;-71
2022/05/01 01:19:07;;;;;;;18.42;14.05;;;9.80;93.20;;;;;;4975782;28;94798;-71
2022/05/01 01:21:36;;;;;;;18.08;14.75;;;9.80;93.20;;;;;;4977080;28;92413;-71
2022/05/01 01:24:06;;;;;;;22.00;15.07;;;9.80;93.10;;;;;;4977135;28;92358;-71
2022/05/01 01:26:37;;;;;;;19.02;14.68;;;9.90;93.10;;;;;;4992487;28;92655;-72
2022/05/01 01:31:40;;;;;;;19.45;14.98;;;9.90;93.20;;;;;;4976039;28;92834;-72
2022/05/01 01:31:53;;;;;;;17.40;14.65;;;9.90;93.20;;;;;;5009077;28;92553;-72
2022/05/01 01:34:26;;;;;;;16.80;14.07;;;9.90;93.00;;;;;;4992005;28;92477;-72
2022/05/01 01:36:53;;;;;;;19.17;14.85;;;9.90;93.00;;;;;;4992672;28;95144;-72
2022/05/01 01:39:23;;;;;;;18.83;14.05;;;9.90;93.30;;;;;;4991253;28;105697;-72
2022/05/01 01:41:52;;;;;;;18.50;13.60;;;9.90;93.20;;;;;;4976780;28;92426;-72
2022/05/01 01:44:20;;;;;;;19.42;14.25;;;9.90;93.10;;;;;;5007114;28;94886;-72
2022/05/01 01:46:47;;;;;;;20.33;15.13;;;9.90;93.10;;;;;;4991981;28;95834;-72
2022/05/01 01:49:14;;;;;;;16.95;13.55;;;9.90;93.20;;;;;;5008115;28;92441;-72
2022/05/01 01:51:41;;;;;;;18.95;14.82;;;10.00;93.20;;;;;;4991898;28;92472;-72
2022/05/01 01:54:08;;;;;;;17.95;14.07;;;10.00;93.10;;;;;;5008507;28;92830;-72
2022/05/01 01:56:37;;;;;;;19.10;14.05;;;9.90;93.10;;;;;;5007768;28;93134;-72
2022/05/01 01:59:04;;;;;;;18.42;14.30;;;9.90;93.20;;;;;;4976548;28;93056;-72
2022/05/01 02:01:31;;;;;;;20.33;15.00;;;9.90;93.20;;;;;;4992194;28;91632;-72
2022/05/01 02:03:58;;;;;;;19.13;14.57;;;10.00;93.20;;;;;;5008400;28;92416;-72
2022/05/01 02:06:25;;;;;;;19.92;15.20;;;9.90;93.20;;;;;;4976040;28;93296;-72
2022/05/01 02:08:52;;;;;;;19.08;15.45;;;10.00;93.20;;;;;;4975289;28;94803;-72
2022/05/01 02:11:20;;;;;;;22.45;15.75;;;10.00;93.20;;;;;;4974786;28;93769;-72
2022/05/01 02:13:47;;;;;;;19.30;15.00;;;10.00;93.20;;;;;;5008018;28;93623;-71
2022/05/01 02:16:14;;;;;;;19.33;15.20;;;10.00;93.20;;;;;;4975996;28;93245;-71
2022/05/01 02:18:41;;;;;;;19.33;14.50;;;10.00;93.10;;;;;;4991215;28;98451;-71
2022/05/01 02:23:53;;;;;;;17.42;15.52;;;10.00;93.20;;;;;;4976463;28;92492;-71
2022/05/01 02:26:20;;;;;;;16.35;14.32;;;10.00;93.20;;;;;;5007677;28;106305;-71
2022/05/01 02:28:47;;;;;;;17.23;14.57;;;10.00;93.10;;;;;;4976170;28;92390;-71
2022/05/01 02:31:14;;;;;;;18.05;14.38;;;10.00;93.20;;;;;;4974557;28;92462;-71
2022/05/01 02:33:41;;;;;;;22.23;15.35;;;9.90;93.30;;;;;;5006700;28;95019;-71
2022/05/01 02:36:08;;;;;;;20.90;16.30;;;9.90;93.30;;;;;;5007956;28;92555;-71
2022/05/01 02:38:36;;;;;;;21.95;16.50;;;9.90;93.40;;;;;;4975744;28;93123;-71
2022/05/01 02:41:03;;;;;;;20.75;16.15;;;9.90;93.40;;;;;;5007598;28;92842;-71
2022/05/01 02:43:30;;;;;;;21.20;16.90;;;9.90;93.40;;;;;;4974347;28;92579;-71
2022/05/01 02:45:57;;;;;;;21.25;16.58;;;10.00;93.40;;;;;;4975863;28;93279;-71
2022/05/01 02:48:24;;;;;;;22.83;15.88;;;9.90;93.40;;;;;;4990718;28;95336;-71
2022/05/01 02:50:51;;;;;;;21.70;16.75;;;9.90;93.20;;;;;;4976254;28;91699;-71
2022/05/01 02:53:18;;;;;;;21.25;16.25;;;9.90;93.30;;;;;;4974533;28;92497;-71
2022/05/01 02:55:46;;;;;;;19.63;15.85;;;9.90;93.20;;;;;;4975603;28;93222;-71
2022/05/01 02:58:13;;;;;;;19.58;14.93;;;9.90;93.30;;;;;;4974238;28;94957;-71
2022/05/01 03:00:40;;;;;;;19.77;15.73;;;9.90;93.30;;;;;;4990627;28;92695;-71
2022/05/01 03:03:08;;;;;;;20.83;15.20;;;9.90;93.40;;;;;;4975709;28;93104;-71
2022/05/01 03:05:35;;;;;;;20.52;15.27;;;9.80;93.40;;;;;;5006829;28;95706;-71
2022/05/01 03:08:02;;;;;;;20.75;16.52;;;9.80;93.40;;;;;;4974054;28;95827;-71
2022/05/01 03:10:28;;;;;;;19.73;16.45;;;9.80;93.40;;;;;;5007568;28;92559;-71
2022/05/01 03:12:55;;;;;;;20.65;16.25;;;9.70;93.40;;;;;;4975677;28;92460;-71
2022/05/01 03:15:24;;;;;;;21.27;16.05;;;9.70;93.50;;;;;;4974215;28;95070;-71
2022/05/01 03:23:22;;;;;;;23.85;18.00;;;9.60;93.70;;;;;;4974385;28;94861;-71
2022/05/01 03:25:49;;;;;;;19.92;17.15;;;9.60;93.80;;;;;;4975250;28;93157;-71
2022/05/01 03:28:16;;;;;;;22.67;17.50;;;9.60;93.90;;;;;;5007330;28;92957;-71
2022/05/01 03:30:43;;;;;;;22.05;18.20;;;9.50;93.90;;;;;;4973636;28;102397;-71
2022/05/01 03:33:10;;;;;;;20.10;16.98;;;9.50;94.00;;;;;;5006947;28;92550;-71
2022/05/01 03:35:38;;;;;;;20.58;17.73;;;9.50;94.00;;;;;;4975190;28;93307;-71
2022/05/01 03:38:06;;;;;;;21.02;16.40;;;9.40;94.00;;;;;;4989862;28;95840;-71
2022/05/01 03:40:36;;;;;;;21.00;16.45;;;9.40;94.10;;;;;;4975501;28;92672;-71
2022/05/01 03:43:04;;;;;;;21.77;17.33;;;9.40;94.10;;;;;;4975415;28;92433;-71
2022/05/01 03:45:31;;;;;;;22.77;16.83;;;9.40;94.20;;;;;;4974834;28;93318;-71
2022/05/01 03:47:58;;;;;;;20.70;16.55;;;9.40;94.20;;;;;;4972396;28;96426;-71
2022/05/01 03:50:25;;;;;;;23.60;18.15;;;9.30;94.30;;;;;;5006590;28;92492;-71
2022/05/01 03:52:52;;;;;;;24.00;17.77;;;9.30;94.40;;;;;;5008727;28;92507;-71
2022/05/01 03:55:19;;;;;;;21.65;17.15;;;9.20;94.50;;;;;;5010251;28;95308;-71
2022/05/01 03:57:46;;;;;;;22.25;17.77;;;9.20;94.60;;;;;;4993674;28;96057;-71
2022/05/01 04:00:22;;;;;;;21.52;17.33;;;9.20;94.60;;;;;;4977141;28;92516;-71
2022/05/01 04:02:49;;;;;;;21.40;17.38;;;9.20;94.60;;;;;;4978714;28;92348;-71
2022/05/01 04:05:16;;;;;;;21.25;17.15;;;9.10;94.60;;;;;;4978664;28;92635;-71
2022/05/01 04:07:43;;;;;;;24.52;18.52;;;9.10;94.60;;;;;;4978077;28;92557;-71
2022/05/01 04:10:12;;;;;;;23.85;18.92;;;9.00;94.70;;;;;;4978622;28;93067;-71
2022/05/01 04:12:44;;;;;;;26.15;20.25;;;9.00;94.80;;;;;;5008846;28;94838;-71
2022/05/01 04:15:14;;;;;;;26.42;20.02;;;8.90;95.00;;;;;;4977027;28;93326;-71
2022/05/01 04:17:42;;;;;;;24.75;20.23;;;8.80;95.10;;;;;;4976499;28;95784;-71
2022/05/01 04:20:15;;;;;;;25.85;20.58;;;8.80;95.20;;;;;;4976334;28;95040;-71
2022/05/01 04:22:44;;;;;;;27.37;19.80;;;8.80;95.50;;;;;;5010017;28;92554;-71
2022/05/01 04:25:16;;;;;;;27.27;20.13;;;8.80;95.20;;;;;;4993041;28;98328;-71
2022/05/01 04:27:48;;;;;;;25.13;20.27;;;8.90;95.30;;;;;;4976193;28;93052;-71
2022/05/01 04:30:16;;;;;;;26.50;21.95;;;8.90;95.20;;;;;;4976945;28;91696;-71
2022/05/01 04:32:58;;;;;;;28.13;21.45;;;8.90;95.20;;;;;;4977319;28;103952;-71
2022/05/01 04:35:30;;;;;;;29.30;22.55;;;8.90;95.10;;;;;;4993276;28;93314;-71
2022/05/01 04:38:00;;;;;;;28.67;21.30;;;8.90;95.10;;;;;;4975133;28;94849;-71
2022/05/01 04:40:28;;;;;;;29.83;21.67;;;8.90;95.10;;;;;;5008945;28;92457;-71
2022/05/01 04:43:09;;;;;;;26.20;20.95;;;8.90;95.20;;;;;;4976618;28;92908;-71
2022/05/01 04:45:38;;;;;;;26.08;21.73;;;9.10;95.20;;;;;;4977750;28;92575;-71
2022/05/01 04:48:06;;;;;;;27.20;21.70;;;9.10;95.10;;;;;;4977660;28;92854;-71
2022/05/01 04:50:34;;;;;;;32.50;23.60;;;9.10;95.00;;;;;;4977525;28;92442;-71
2022/05/01 04:53:02;;;;;;;25.83;20.77;;;9.20;94.90;;;;;;5009653;28;92543;-71
2022/05/01 04:55:30;;;;;;;25.80;20.65;;;9.20;94.80;;;;;;5009580;28;92376;-71
2022/05/01 04:57:57;;;;;;;27.33;20.98;;;9.30;94.70;;;;;;4975985;28;93451;-71
2022/05/01 05:00:26;;;;;;;25.30;20.38;;;9.30;94.60;;;;;;4992655;28;92641;-71
2022/05/01 05:02:56;;;;;;;26.35;19.88;;;9.40;94.50;;;;;;5007544;28;94965;-71
2022/05/01 05:05:26;;;;;;;23.67;18.55;;;9.40;94.50;;;;;;4991903;28;93131;-71
2022/05/01 05:07:54;;;;;;;30.50;22.17;;;9.50;94.40;;;;;;4977097;28;93211;-71
2022/05/01 05:10:21;;;;;;;24.45;21.42;;;9.50;94.20;;;;;;4977386;28;92336;-71
2022/05/01 05:12:49;;;;;;;28.58;22.52;;;9.60;94.20;;;;;;4975883;28;92513;-71
2022/05/01 05:15:20;;;;;;;30.77;23.80;;;9.60;94.10;;;;;;4975988;28;95791;-71
2022/05/01 05:17:47;;;;;;;28.35;22.27;;;9.70;94.10;;;;;;5008915;28;92877;-71
2022/05/01 05:20:14;;;;;;;31.27;22.95;;;9.70;94.00;;;;;;4977555;28;91772;-71
2022/05/01 05:22:42;;;;;;;32.58;23.40;;;9.70;93.90;;;;;;4977173;28;92479;-71
2022/05/01 05:25:11;;;;;;;30.25;22.85;;;9.80;93.80;;;;;;4976975;28;93307;-71
2022/05/01 05:27:38;;;;;;;28.58;22.67;;;9.80;93.70;;;;;;4975538;28;94773;-71
2022/05/01 05:30:06;;;;;;;29.20;22.15;;;9.80;93.70;;;;;;4977313;28;93102;-71
2022/05/01 05:32:35;;;;;;;28.33;21.90;;;9.90;93.70;;;;;;4991710;28;92664;-71
2022/05/01 05:35:02;;;;;;;30.58;21.67;;;9.80;93.80;;;;;;4975435;28;94764;-71
2022/05/01 05:37:29;;;;;;;27.67;21.83;;;9.80;93.80;;;;;;4975549;28;95658;-71
2022/05/01 05:39:56;;;;;;;27.08;22.45;;;9.90;93.80;;;;;;5008535;28;92540;-71
2022/05/01 05:42:23;;;;;;;24.38;19.63;;;10.00;93.80;;;;;;4992259;28;92542;-71
2022/05/01 05:44:51;;;;;;;23.38;17.92;;;10.20;93.90;;;;;;4975556;28;95243;-71
2022/05/01 05:47:18;;;;;;;19.58;16.70;;;10.70;93.60;;;;;;4976681;28;92383;-71
2022/05/01 05:49:44;;;;;;;20.13;15.90;;;11.50;92.70;;;;;;4976692;28;92344;-72
2022/05/01 05:52:17;;;;;;;16.30;14.50;;;12.20;91.50;;;;;;4974294;28;95530;-72
2022/05/01 05:54:44;;;;;;;19.83;16.33;;;12.70;90.20;;;;;;5008221;28;93336;-72
2022/05/01 05:57:11;;;;;;;17.95;15.00;;;13.10;90.00;;;;;;4975129;28;94232;-72
2022/05/01 05:59:38;;;;;;;17.38;15.57;;;13.50;88.60;;;;;;4991460;28;92536;-72
2022/05/01 06:02:05;;;;;;;15.13;13.55;;;13.90;87.30;;;;;;4975195;28;92515;-72
2022/05/01 06:04:32;;;;;;;15.93;13.93;;;14.10;86.00;;;;;;5008314;28;93161;-72
2022/05/01 06:06:59;;;;;;;14.82;13.43;;;14.30;86.00;;;;;;4976198;28;92415;-72
2022/05/01 06:09:26;;;;;;;13.45;12.15;;;14.70;85.10;;;;;;4975575;28;94562;-72
2022/05/01 06:11:53;;;;;;;10.98;9.98;;;15.30;83.30;;;;;;5008166;28;93019;-72
2022/05/01 06:14:20;;;;;;;14.60;12.40;;;15.90;81.40;;;;;;4957709;28;114356;-72
2022/05/01 06:16:46;;;;;;;11.85;10.85;;;16.60;79.70;;;;;;5006350;28;94830;-72
2022/05/01 06:19:15;;;;;;;12.20;11.00;;;17.20;77.10;;;;;;5008135;28;92421;-72
2022/05/01 06:21:42;;;;;;;8.75;7.85;;;17.40;75.30;;;;;;4975335;28;92415;-72
2022/05/01 06:24:09;;;;;;;13.43;12.20;;;17.50;73.40;;;;;;4976653;28;93256;-72
2022/05/01 06:26:36;;;;;;;13.00;11.82;;;17.40;72.00;;;;;;5007964;28;93245;-72
2022/05/01 06:29:03;;;;;;;13.43;12.05;;;17.30;72.10;;;;;;4974462;28;92516;-72
2022/05/01 06:31:30;;;;;;;12.77;11.57;;;17.10;72.70;;;;;;4991346;28;92483;-72
2022/05/01 06:33:57;;;;;;;12.35;11.15;;;17.00;73.40;;;;;;5008014;28;92282;-72
2022/05/01 06:36:36;;;;;;;19.10;12.73;;;16.90;72.40;;;;;;4990967;28;93408;-72
2022/05/01 06:39:14;;;;;;;12.90;11.70;;;16.90;72.30;;;;;;4976269;28;92375;-72
2022/05/01 06:41:41;;;;;;;12.60;11.40;;;16.90;72.60;;;;;;5006139;28;94918;-72
2022/05/01 06:44:08;;;;;;;11.52;10.48;;;16.90;72.20;;;;;;5008034;28;93296;-72
2022/05/01 06:46:50;;;;;;;9.18;8.27;;;17.10;72.00;;;;;;4974546;28;95512;-72
2022/05/01 06:49:18;;;;;;;13.55;12.23;;;17.40;70.10;;;;;;5008184;28;93208;-72
2022/05/01 06:51:45;;;;;;;11.63;10.43;;;17.40;70.60;;;;;;4990689;28;92933;-72
2022/05/01 06:54:12;;;;;;;12.40;11.30;;;17.50;69.80;;;;;;5007451;28;95790;-72
2022/05/01 06:56:41;;;;;;;13.55;12.38;;;17.60;69.30;;;;;;4990646;28;95712;-72
2022/05/01 06:59:08;;;;;;;10.57;9.70;;;17.60;68.80;;;;;;5007934;28;91716;-72
2022/05/01 07:01:38;;;;;;;11.43;9.90;;;17.70;68.90;;;;;;4976477;28;92429;-72
2022/05/01 07:04:07;;;;;;;11.63;10.60;;;17.80;68.00;;;;;;4976131;28;93354;-72
2022/05/01 07:06:34;;;;;;;10.95;9.85;;;17.80;67.50;;;;;;4974226;28;94858;-72
2022/05/01 07:09:01;;;;;;;11.82;10.68;;;17.60;67.90;;;;;;4975929;28;92378;-72
2022/05/01 07:11:28;;;;;;;10.88;9.82;;;17.40;67.90;;;;;;5007418;28;92473;-72
2022/05/01 07:13:55;;;;;;;12.98;10.52;;;17.30;68.00;;;;;;4975815;28;93233;-72
2022/05/01 07:16:22;;;;;;;11.75;10.63;;;17.10;68.20;;;;;;5007120;28;93144;-72
2022/05/01 07:18:49;;;;;;;9.95;9.02;;;17.10;68.90;;;;;;5006919;28;92544;-72
2022/05/01 07:21:17;;;;;;;12.35;11.07;;;17.10;68.00;;;;;;4975445;28;93060;-72
2022/05/01 07:23:44;;;;;;;10.93;9.93;;;17.20;67.80;;;;;;5006909;28;92554;-72
2022/05/01 07:26:11;;;;;;;11.32;10.32;;;17.20;67.00;;;;;;4990695;28;92822;-72
2022/05/01 07:28:39;;;;;;;10.30;9.02;;;17.20;66.70;;;;;;4990161;28;92518;-72
2022/05/01 07:31:06;;;;;;;10.07;9.07;;;17.20;66.50;;;;;;4973216;28;94840;-72
2022/05/01 07:33:33;;;;;;;12.80;11.60;;;17.10;66.30;;;;;;4975600;28;93343;-72
2022/05/01 07:36:01;;;;;;;10.20;9.30;;;17.10;66.80;;;;;;4973571;28;95765;-72
2022/05/01 07:38:27;;;;;;;8.30;7.47;;;17.00;67.20;;;;;;5007477;28;92521;-72
2022/05/01 07:40:54;;;;;;;7.18;6.57;;;16.90;66.00;;;;;;4974134;28;92464;-72
2022/05/01 07:43:21;;;;;;;6.68;5.90;;;16.60;66.00;;;;;;4975882;28;93151;-72
2022/05/01 07:45:48;;;;;;;9.30;8.07;;;16.40;66.10;;;;;;4975766;28;92970;-72
2022/05/01 07:48:16;;;;;;;8.55;7.85;;;16.20;67.00;;;;;;4975929;28;91631;-72
2022/05/01 07:50:43;;;;;;;8.05;7.45;;;16.10;68.10;;;;;;4975771;28;92456;-72
2022/05/01 07:53:10;;;;;;;9.15;8.27;;;16.30;68.00;;;;;;4975546;28;92850;-72
2022/05/01 07:55:36;;;;;;;10.10;9.23;;;16.70;66.30;;;;;;4974395;28;94796;-72
2022/05/01 07:58:03;;;;;;;9.75;8.73;;;17.20;65.80;;;;;;4974327;28;92352;-72
2022/05/01 08:00:30;;;;;;;8.82;8.00;;;17.90;62.60;;;;;;5007409;28;92474;-72
2022/05/01 08:05:43;;;;;;;8.07;7.40;;;19.10;59.60;;;;;;4975605;28;93040;-72
2022/05/01 08:08:10;;;;;;;8.55;7.80;;;20.00;58.00;;;;;;4990428;28;92495;-72
2022/05/01 08:10:37;;;;;;;8.63;7.93;;;20.80;53.80;;;;;;4974227;28;92621;-73
2022/05/01 08:13:04;;;;;;;8.20;7.60;;;21.70;52.10;;;;;;4975440;28;92532;-73
2022/05/01 08:15:42;;;;;;;8.27;7.68;;;22.70;50.20;;;;;;4973640;28;106275;-73
2022/05/01 08:21:09;;;;;;;9.02;8.43;;;23.50;44.90;;;;;;4932406;28;95009;-73
2022/05/01 08:23:38;;;;;;;8.38;7.72;;;24.20;43.60;;;;;;4917799;28;93283;-73
2022/05/01 08:26:10;;;;;;;9.98;9.38;;;24.50;42.00;;;;;;4933362;28;94021;-73
2022/05/01 08:29:19;;;;;;;7.73;7.13;;;24.80;41.40;;;;;;4918581;28;92569;-71
2022/05/01 08:31:48;;;;;;;8.43;7.80;;;25.50;39.40;;;;;;4933356;28;92643;-71
2022/05/01 08:34:16;;;;;;;8.10;7.40;;;25.40;39.40;;;;;;4933358;28;95797;-71
2022/05/01 08:36:45;;;;;;;7.90;7.30;;;25.10;38.30;;;;;;4933531;28;95662;-71
2022/05/01 08:39:12;;;;;;;7.43;6.78;;;24.20;39.30;;;;;;4936059;28;91770;-71
2022/05/01 08:41:39;;;;;;;6.40;5.80;;;23.40;40.30;;;;;;4937329;28;92841;-71
2022/05/01 08:44:13;;;;;;;10.18;8.10;;;22.70;41.30;;;;;;4936682;28;93212;-71
2022/05/01 08:47:10;;;;;;;7.90;7.20;;;22.10;42.80;;;;;;4935456;28;95718;-71
2022/05/01 08:49:38;;;;;;;8.90;8.10;;;21.70;43.60;;;;;;4972298;28;92959;-71
2022/05/01 08:52:07;;;;;;;8.80;8.10;;;21.40;44.50;;;;;;4977072;28;92429;-70
2022/05/01 08:54:37;;;;;;;8.00;7.30;;;21.40;45.40;;;;;;4978381;28;93491;-71
2022/05/01 08:57:04;;;;;;;7.70;6.82;;;21.40;44.40;;;;;;4977778;28;99008;-71
2022/05/01 08:59:32;;;;;;;8.90;8.15;;;21.20;45.00;;;;;;4978290;28;92438;-73
2022/05/01 09:01:59;;;;;;;7.18;6.43;;;21.10;45.60;;;;;;4976483;28;92484;-73
2022/05/01 09:04:28;;;;;;;7.72;6.88;;;21.00;46.50;;;;;;4993661;28;95362;-73
2022/05/01 09:06:55;;;;;;;8.30;6.95;;;20.70;46.70;;;;;;5009378;28;94832;-73
2022/05/01 09:09:23;;;;;;;8.45;6.45;;;20.50;47.10;;;;;;4976523;28;92425;-73
2022/05/01 09:14:40;;;;;;;7.88;7.07;;;20.40;47.60;;;;;;4978033;28;93326;-73
2022/05/01 09:17:12;;;;;;;8.82;7.93;;;20.40;47.60;;;;;;4977481;28;92782;-73
2022/05/01 09:19:43;;;;;;;7.07;6.40;;;20.40;48.50;;;;;;4993199;28;92922;-73
2022/05/01 09:22:12;;;;;;;7.40;6.63;;;20.40;48.00;;;;;;4977210;28;92482;-73
2022/05/01 09:24:39;;;;;;;9.02;7.68;;;20.50;48.80;;;;;;5009501;28;93280;-73
2022/05/01 09:27:24;;;;;;;9.35;8.55;;;20.50;48.10;;;;;;4976001;28;95505;-73
2022/05/01 09:30:10;;;;;;;8.25;7.53;;;20.50;47.60;;;;;;5010221;28;91924;-73
2022/05/01 09:32:40;;;;;;;8.68;7.72;;;20.30;46.90;;;;;;4976240;28;92603;-72
2022/05/01 09:35:31;;;;;;;9.35;7.38;;;19.80;48.10;;;;;;4977340;28;93466;-72
2022/05/01 09:38:22;;;;;;;9.07;8.18;;;19.70;48.00;;;;;;4976400;28;94791;-72
2022/05/01 09:40:57;;;;;;;8.75;7.93;;;19.80;48.40;;;;;;4977349;28;92834;-72
2022/05/01 09:43:39;;;;;;;7.00;6.30;;;19.70;48.60;;;;;;4992673;28;92551;-72
2022/05/01 09:46:22;;;;;;;6.22;5.72;;;19.80;48.10;;;;;;4976872;28;101828;-72
2022/05/01 09:49:09;;;;;;;7.87;7.17;;;20.10;47.00;;;;;;4977447;28;92934;-72
2022/05/01 09:51:42;;;;;;;6.10;5.60;;;20.20;47.50;;;;;;4977245;28;92335;-72
2022/05/01 09:54:16;;;;;;;7.15;6.00;;;20.40;47.00;;;;;;4977270;28;92633;-72
2022/05/01 09:56:48;;;;;;;6.75;5.57;;;20.50;46.70;;;;;;5009482;28;95253;-70
2022/05/01 09:59:17;;;;;;;6.82;6.13;;;20.80;46.00;;;;;;4976625;28;92481;-70
2022/05/01 10:02:02;;;;;;;7.97;7.20;;;21.00;46.70;;;;;;5009032;28;92507;-72
2022/05/01 10:04:34;;;;;;;5.35;4.85;;;21.00;43.70;;;;;;4974354;28;95098;-73
2022/05/01 10:07:02;;;;;;;6.70;4.80;;;21.20;45.40;;;;;;4975989;28;93264;-73
2022/05/01 10:09:31;;;;;;;6.47;5.95;;;21.30;44.10;;;;;;4976609;28;93010;-73
2022/05/01 10:12:10;;;;;;;6.75;6.15;;;21.50;44.00;;;;;;4975584;28;92954;-73
2022/05/01 10:14:37;;;;;;;5.80;5.30;;;21.50;43.40;;;;;;4977011;28;92498;-73
2022/05/01 10:17:06;;;;;;;5.65;5.18;;;21.10;43.00;;;;;;4975445;28;95906;-73
2022/05/01 10:19:34;;;;;;;10.07;6.03;;;20.90;45.10;;;;;;4975283;28;92859;-73
2022/05/01 10:22:01;;;;;;;6.60;5.47;;;21.10;45.20;;;;;;4976705;28;95833;-72
2022/05/01 10:24:28;;;;;;;5.43;4.90;;;21.30;44.00;;;;;;4976591;28;92527;-73
2022/05/01 10:27:37;;;;;;;7.15;5.28;;;21.40;44.20;;;;;;5008446;28;95704;-73
2022/05/01 10:33:38;;;;;;;7.25;5.90;;;21.60;43.10;;;;;;4976822;28;92367;-72
2022/05/01 10:36:29;;;;;;;7.32;6.72;;;21.10;43.80;;;;;;4954673;28;92899;-72
2022/05/01 10:43:36;;;;;;;7.35;6.75;;;21.00;44.50;;;;;;4974616;28;92372;-73
2022/05/01 10:46:21;;;;;;;6.65;6.03;;;20.50;44.80;;;;;;4971426;28;92865;-72
2022/05/01 10:48:49;;;;;;;6.25;5.65;;;20.50;44.50;;;;;;4997163;28;92461;-72
2022/05/01 10:51:29;;;;;;;8.35;7.57;;;20.50;45.10;;;;;;5008092;28;92648;-73
2022/05/01 10:54:19;;;;;;;8.00;7.18;;;20.60;44.20;;;;;;4974493;28;94863;-72
2022/05/01 10:56:48;;;;;;;9.55;6.30;;;20.70;43.50;;;;;;4975167;28;93160;-72
2022/05/01 10:59:39;;;;;;;6.32;5.82;;;20.70;44.60;;;;;;4974806;28;95441;-72
2022/05/01 11:02:24;;;;;;;;;;;20.70;44.50;;;;;;4976537;28;93334;-72
2022/05/01 11:04:55;;;;;;;6.15;5.57;;;20.20;44.20;;;;;;4977069;28;98171;-72
2022/05/01 11:07:25;;;;;;;6.25;5.13;;;20.00;45.30;;;;;;5008207;28;92583;-73
2022/05/01 11:09:53;;;;;;;6.53;6.03;;;19.80;45.50;;;;;;4975769;28;92611;-72
2022/05/01 11:12:25;;;;;;;6.05;5.55;;;19.50;46.00;;;;;;5007610;28;93265;-72
2022/05/01 11:14:53;;;;;;;5.57;4.72;;;19.60;47.30;;;;;;4976030;28;93367;-73
2022/05/01 11:17:44;;;;;;;6.82;5.97;;;19.80;47.50;;;;;;4976584;28;91766;-72
2022/05/01 11:20:14;;;;;;;6.72;6.13;;;20.00;45.50;;;;;;4972944;28;92404;-72
2022/05/01 11:22:45;;;;;;;6.28;5.78;;;19.80;45.40;;;;;;4975516;28;93149;-72
2022/05/01 11:25:23;;;;;;;5.20;4.80;;;19.70;45.40;;;;;;4974245;28;100538;-72
2022/05/01 11:27:51;;;;;;;6.20;5.53;;;19.80;45.20;;;;;;4976120;28;92488;-72
2022/05/01 11:30:27;;;;;;;7.57;6.28;;;20.00;45.40;;;;;;4974409;28;92438;-72
2022/05/01 11:33:11;;;;;;;6.93;6.40;;;20.10;44.70;;;;;;4974141;28;95971;-72
2022/05/01 11:35:57;;;;;;;6.45;4.88;;;20.30;45.00;;;;;;5006993;28;95607;-72
2022/05/01 11:38:33;;;;;;;5.65;5.13;;;20.60;45.10;;;;;;4975790;28;92445;-72
2022/05/01 11:41:02;;;;;;;5.03;4.57;;;20.80;42.70;;;;;;4975743;28;92800;-73
2022/05/01 11:43:30;;;;;;;5.35;4.85;;;21.00;42.50;;;;;;4975814;28;92602;-73
2022/05/01 11:46:01;;;;;;;6.82;6.07;;;21.10;42.00;;;;;;4975583;28;92482;-73
2022/05/01 11:48:29;;;;;;;5.70;4.47;;;21.10;41.50;;;;;;4975996;28;92482;-73
2022/05/01 11:51:00;;;;;;;4.95;4.65;;;21.30;41.10;;;;;;4989062;28;98405;-73
2022/05/01 11:53:32;;;;;;;6.40;5.03;;;21.40;40.60;;;;;;5007296;28;93262;-73
2022/05/01 12:04:33;;;;;;;5.93;5.28;;;22.10;40.30;;;;;;4975563;28;93376;-73
2022/05/01 12:07:02;;;;;;;5.63;5.07;;;22.00;40.00;;;;;;4990440;28;95461;-73
2022/05/01 12:09:31;;;;;;;5.07;4.10;;;22.00;39.80;;;;;;4975467;28;96919;-73
2022/05/01 12:11:58;;;;;;;4.43;4.10;;;22.00;39.70;;;;;;4990179;28;93974;-73
2022/05/01 12:14:25;;;;;;;4.65;4.25;;;22.00;39.00;;;;;;4977732;28;93181;-72
2022/05/01 12:16:52;;;;;;;6.20;5.78;;;22.00;39.30;;;;;;4977746;28;95492;-73
2022/05/01 12:19:20;;;;;;;10.13;5.07;;;22.00;40.30;;;;;;5010351;28;92552;-73
2022/05/01 12:21:47;;;;;;;5.30;4.85;;;22.00;40.00;;;;;;4976718;28;92552;-73
2022/05/01 12:24:14;;;;;;;6.68;6.00;;;22.10;39.60;;;;;;4993526;28;93507;-73
2022/05/01 12:26:49;;;;;;;5.20;4.75;;;22.10;40.20;;;;;;4978353;28;92972;-73
2022/05/01 12:29:17;;;;;;;6.68;6.00;;;22.20;39.30;;;;;;4978107;28;92450;-73
2022/05/01 12:32:14;;;;;;;6.72;5.57;;;22.00;39.30;;;;;;5010436;28;92552;-73
2022/05/01 12:34:44;;;;;;;7.75;5.25;;;22.00;40.00;;;;;;4974245;28;92547;-73
2022/05/01 12:37:16;;;;;;;9.60;4.93;;;21.90;39.90;;;;;;4978121;28;93133;-73
2022/05/01 12:39:54;;;;;;;6.15;4.95;;;21.80;40.50;;;;;;4978416;28;92617;-73
2022/05/01 12:45:11;;;;;;;7.63;5.40;;;22.00;40.90;;;;;;4978038;28;93268;-73
2022/05/01 12:47:45;;;;;;;6.15;5.55;;;22.10;40.50;;;;;;4976709;28;96984;-73
2022/05/01 12:50:18;;;;;;;5.13;4.72;;;22.30;39.20;;;;;;4978327;28;92465;-73
2022/05/01 12:52:47;;;;;;;5.18;4.70;;;22.40;39.50;;;;;;4976914;28;92479;-73
2022/05/01 12:55:17;;;;;;;5.70;5.30;;;22.40;40.10;;;;;;4977782;28;93154;-73
2022/05/01 12:58:01;;;;;;;7.43;6.72;;;22.50;40.50;;;;;;4977727;28;92952;-73
2022/05/01 13:00:42;;;;;;;6.28;5.53;;;22.80;39.10;;;;;;4993372;28;91726;-70
2022/05/01 13:03:29;;;;;;;5.10;4.70;;;22.90;38.60;;;;;;4993054;28;92499;-70
2022/05/01 13:06:02;;;;;;;4.88;4.40;;;23.00;37.60;;;;;;4977977;28;93354;-71
2022/05/01 13:08:40;;;;;;;5.83;5.27;;;23.00;38.90;;;;;;4991843;28;94977;-71
2022/05/01 13:11:13;;;;;;;4.88;4.25;;;23.10;38.50;;;;;;4993327;28;92495;-71
2022/05/01 13:13:51;;;;;;;5.65;5.15;;;23.10;37.20;;;;;;4993567;28;92445;-71
2022/05/01 13:16:32;;;;;;;5.10;4.50;;;22.80;36.40;;;;;;4977456;28;93353;-70
2022/05/01 13:19:26;;;;;;;5.95;5.10;;;22.30;37.60;;;;;;4977967;28;92886;-70
2022/05/01 13:21:53;;;;;;;5.18;4.78;;;22.10;37.40;;;;;;4976401;28;92563;-70
2022/05/01 13:24:23;;;;;;;5.63;5.20;;;22.00;38.70;;;;;;5008316;28;94904;-70
2022/05/01 13:26:53;;;;;;;5.10;4.70;;;22.10;37.70;;;;;;4977797;28;92437;-71
2022/05/01 13:29:20;;;;;;;5.40;4.40;;;22.20;38.00;;;;;;5009203;28;92460;-70
2022/05/01 13:31:48;;;;;;;5.80;5.28;;;22.40;37.50;;;;;;5009476;28;92467;-70
2022/05/01 13:34:15;;;;;;;4.93;4.53;;;22.40;36.70;;;;;;4991586;28;95435;-70
2022/05/01 13:36:43;;;;;;;6.20;5.70;;;22.20;36.40;;;;;;5009087;28;94829;-70